Time;durP1;ratioP1;P1;durP2;ratioP2;P2;SDS_P1;SDS_P2;PMS_P1;PMS_P2;Temp;Humidity;BMP_temperature;BMP_pressure;BME280_temperature;BME280_humidity;BME280_pressure;Samples;Min_cycle;Max_cycle;Signal;HPM_P1;HPM_P2
2022/12/25 00:01:38;;;;;;;15.80;4.43;;;9.80;94.50;;;;;;5133641;28;20097;-75
2022/12/25 00:04:04;;;;;;;12.27;3.70;;;9.80;94.80;;;;;;5115606;28;20034;-75
2022/12/25 00:06:29;;;;;;;18.88;3.67;;;9.80;94.50;;;;;;5115596;28;20043;-75
2022/12/25 00:08:55;;;;;;;14.13;4.00;;;9.80;94.50;;;;;;5133510;28;20024;-75
2022/12/25 00:11:21;;;;;;;11.68;3.35;;;9.80;94.60;;;;;;5115580;28;20051;-75
2022/12/25 00:13:47;;;;;;;18.05;3.85;;;9.80;94.60;;;;;;5133535;28;20047;-75
2022/12/25 00:16:21;;;;;;;10.55;4.03;;;9.80;94.60;;;;;;5132498;28;20024;-75
2022/12/25 00:18:48;;;;;;;12.23;3.58;;;9.80;94.60;;;;;;5133314;28;20063;-75
2022/12/25 00:21:14;;;;;;;14.00;4.00;;;9.80;94.60;;;;;;5132428;28;20079;-75
2022/12/25 00:23:40;;;;;;;15.57;4.53;;;9.80;94.70;;;;;;5115446;28;20035;-75
2022/12/25 00:26:08;;;;;;;11.45;3.65;;;9.80;94.60;;;;;;5132444;28;20036;-75
2022/12/25 00:28:34;;;;;;;15.50;4.47;;;9.80;94.70;;;;;;5132500;28;20028;-75
2022/12/25 00:31:11;;;;;;;13.98;3.55;;;9.80;94.80;;;;;;5115329;28;20035;-75
2022/12/25 00:33:38;;;;;;;15.30;4.30;;;9.80;94.80;;;;;;5133331;28;20034;-75
2022/12/25 00:36:05;;;;;;;12.52;3.50;;;9.80;94.80;;;;;;5132316;28;20068;-75
2022/12/25 00:38:32;;;;;;;12.63;3.75;;;9.80;94.90;;;;;;5132389;28;20049;-76
2022/12/25 00:40:58;;;;;;;9.15;3.90;;;9.80;95.00;;;;;;5135810;28;20023;-74
2022/12/25 00:43:24;;;;;;;11.15;3.35;;;9.80;95.10;;;;;;5136908;28;20031;-75
2022/12/25 00:45:57;;;;;;;13.85;3.40;;;9.80;95.10;;;;;;5136850;28;20028;-75
2022/12/25 00:48:23;;;;;;;13.98;3.97;;;9.80;95.10;;;;;;5136820;28;20023;-76
2022/12/25 00:50:53;;;;;;;16.02;3.72;;;9.80;95.20;;;;;;5136768;28;20030;-75
2022/12/25 00:53:19;;;;;;;12.15;3.80;;;9.80;95.30;;;;;;5135694;28;20020;-75
2022/12/25 00:55:50;;;;;;;8.48;3.47;;;9.90;95.40;;;;;;5136656;28;20031;-74
2022/12/25 00:58:16;;;;;;;9.48;4.05;;;9.90;95.40;;;;;;5136686;28;20053;-74
2022/12/25 01:00:41;;;;;;;13.25;3.83;;;9.80;95.40;;;;;;5136586;28;20028;-75
2022/12/25 01:03:07;;;;;;;13.70;3.78;;;9.90;95.50;;;;;;5135655;28;20031;-75
2022/12/25 01:05:32;;;;;;;13.48;4.07;;;9.90;95.50;;;;;;5118481;28;20028;-75
2022/12/25 01:07:58;;;;;;;16.80;3.85;;;9.90;95.50;;;;;;5136456;28;20031;-75
2022/12/25 01:10:24;;;;;;;13.65;3.95;;;9.90;95.60;;;;;;5136361;28;20039;-75
2022/12/25 01:12:50;;;;;;;13.13;3.63;;;9.90;95.70;;;;;;5118322;28;20077;-75
2022/12/25 01:15:16;;;;;;;13.13;4.20;;;9.90;95.70;;;;;;5136332;28;20023;-75
2022/12/25 01:17:43;;;;;;;8.80;3.60;;;9.90;95.80;;;;;;5136039;28;20502;-75
2022/12/25 01:20:10;;;;;;;10.45;3.35;;;9.90;95.90;;;;;;5135194;28;20020;-75
2022/12/25 01:22:35;;;;;;;14.13;3.95;;;10.00;96.20;;;;;;5135172;28;20027;-75
2022/12/25 01:25:01;;;;;;;10.75;3.38;;;9.90;96.30;;;;;;5118061;28;20028;-75
2022/12/25 01:27:27;;;;;;;12.10;3.92;;;9.90;96.50;;;;;;5136201;28;20027;-76
2022/12/25 01:29:53;;;;;;;10.70;4.10;;;9.90;96.70;;;;;;5134935;28;20098;-75
2022/12/25 01:32:18;;;;;;;11.13;3.80;;;9.90;96.70;;;;;;5117852;28;20058;-76
2022/12/25 01:34:44;;;;;;;9.82;3.28;;;9.90;96.70;;;;;;5134993;28;20065;-75
2022/12/25 01:37:10;;;;;;;18.73;5.03;;;9.90;96.70;;;;;;5135896;28;20027;-75
2022/12/25 01:39:36;;;;;;;8.25;4.00;;;9.90;96.60;;;;;;5134987;28;20492;-75
2022/12/25 01:42:02;;;;;;;17.05;4.05;;;10.00;96.60;;;;;;5134871;28;20055;-75
2022/12/25 01:44:37;;;;;;;15.50;4.43;;;10.00;96.50;;;;;;5100820;28;20062;-76
2022/12/25 01:47:04;;;;;;;16.20;3.88;;;10.00;96.50;;;;;;5135665;28;20053;-75
2022/12/25 01:49:32;;;;;;;8.63;3.55;;;10.00;96.50;;;;;;5134454;28;20385;-75
2022/12/25 01:52:12;;;;;;;9.88;3.72;;;10.00;96.40;;;;;;5135354;28;20382;-76
2022/12/25 01:54:42;;;;;;;15.18;4.10;;;10.00;96.20;;;;;;5134687;28;20016;-75
2022/12/25 01:57:15;;;;;;;10.40;4.00;;;10.00;96.30;;;;;;5135526;28;20083;-75
2022/12/25 01:59:41;;;;;;;14.95;3.90;;;10.00;96.20;;;;;;5135486;28;20020;-75
2022/12/25 02:02:07;;;;;;;15.52;4.50;;;10.00;96.20;;;;;;5117315;28;20024;-75
2022/12/25 02:04:40;;;;;;;13.00;4.32;;;10.10;96.10;;;;;;5134273;28;20031;-75
2022/12/25 02:07:09;;;;;;;14.02;4.35;;;10.10;96.10;;;;;;5135309;28;20020;-75
2022/12/25 02:09:36;;;;;;;10.27;3.42;;;10.10;96.10;;;;;;5134129;28;20027;-75
2022/12/25 02:12:02;;;;;;;11.60;4.40;;;10.10;96.10;;;;;;5134148;28;20475;-75
2022/12/25 02:14:31;;;;;;;19.30;4.25;;;10.00;96.10;;;;;;5134258;28;20050;-75
2022/12/25 02:17:09;;;;;;;10.05;4.38;;;10.00;96.10;;;;;;5133917;28;20012;-75
2022/12/25 02:20:12;;;;;;;11.48;3.72;;;10.00;96.20;;;;;;5134262;28;20042;-75
2022/12/25 02:22:59;;;;;;;11.70;3.50;;;10.10;96.30;;;;;;5134951;28;20031;-75
2022/12/25 02:26:00;;;;;;;13.07;4.10;;;10.10;96.30;;;;;;5135019;28;20381;-75
2022/12/25 02:29:04;;;;;;;9.90;3.42;;;10.00;96.40;;;;;;5133841;28;20437;-76
2022/12/25 02:31:39;;;;;;;13.60;4.55;;;10.00;96.50;;;;;;5111670;28;20036;-75
2022/12/25 02:34:18;;;;;;;8.73;3.60;;;10.00;96.50;;;;;;5134733;28;20020;-75
2022/12/25 02:36:58;;;;;;;7.10;3.55;;;10.00;96.50;;;;;;5134714;28;20566;-76
2022/12/25 02:39:57;;;;;;;13.65;4.20;;;10.00;96.50;;;;;;5133659;28;20416;-75
2022/12/25 03:07:56;;;;;;;10.77;3.53;;;9.90;96.70;;;;;;5134329;28;20039;-75
2022/12/25 03:13:15;;;;;;;11.40;3.50;;;9.90;96.90;;;;;;5133377;28;20119;-76
2022/12/25 03:18:29;;;;;;;8.68;3.30;;;9.90;96.60;;;;;;5133989;28;20047;-76
2022/12/25 03:31:10;;;;;;;9.57;3.42;;;9.80;96.40;;;;;;5133429;28;20070;-75
2022/12/25 03:32:09;;;;;;;10.80;2.85;;;9.80;96.30;;;;;;5133870;28;20039;-75
2022/12/25 04:36:16;;;;;;;11.13;3.40;;;9.50;96.00;;;;;;5136411;28;20030;-75
2022/12/25 04:38:42;;;;;;;7.07;2.70;;;9.50;95.80;;;;;;5119236;28;20027;-75
2022/12/25 04:41:13;;;;;;;8.80;3.28;;;9.50;95.80;;;;;;5119006;28;20026;-75
2022/12/25 04:43:39;;;;;;;8.60;2.70;;;9.50;95.80;;;;;;5136996;28;20076;-75
2022/12/25 04:46:05;;;;;;;9.27;3.50;;;9.50;95.70;;;;;;5136925;28;20023;-75
2022/12/25 04:48:33;;;;;;;9.68;3.63;;;9.50;95.80;;;;;;5135964;28;20032;-75
2022/12/25 04:51:16;;;;;;;7.55;3.78;;;9.60;95.70;;;;;;5135867;28;20449;-75
2022/12/25 04:53:43;;;;;;;6.55;2.80;;;9.60;95.60;;;;;;5135718;28;20026;-76
2022/12/25 04:56:09;;;;;;;8.10;2.85;;;9.60;95.50;;;;;;5135816;28;20030;-75
2022/12/25 04:58:34;;;;;;;9.65;2.90;;;9.60;95.40;;;;;;5135781;28;20028;-75
2022/12/25 05:01:01;;;;;;;8.02;3.15;;;9.60;95.30;;;;;;5136604;28;20035;-76
2022/12/25 05:03:28;;;;;;;5.55;2.97;;;9.50;95.20;;;;;;5136592;27;20051;-75
2022/12/25 05:05:54;;;;;;;7.63;2.67;;;9.50;94.90;;;;;;5136552;28;20031;-76
2022/12/25 05:08:19;;;;;;;6.43;2.97;;;9.40;94.70;;;;;;5118572;28;20382;-75
2022/12/25 05:10:46;;;;;;;6.75;3.30;;;9.30;94.60;;;;;;5135722;28;20034;-76
2022/12/25 05:13:11;;;;;;;7.40;2.95;;;9.20;94.20;;;;;;5118413;28;20024;-76
2022/12/25 05:15:41;;;;;;;10.63;3.55;;;9.20;94.30;;;;;;5135568;28;20054;-75
2022/12/25 05:18:06;;;;;;;10.13;3.28;;;9.10;94.50;;;;;;5135111;28;20035;-75
2022/12/25 05:20:32;;;;;;;9.30;3.35;;;9.10;94.70;;;;;;5135324;28;20055;-75
2022/12/25 05:22:58;;;;;;;9.73;3.83;;;9.10;94.70;;;;;;5135134;28;20039;-75
2022/12/25 05:25:24;;;;;;;6.40;3.10;;;9.00;94.70;;;;;;5117475;28;20027;-75
2022/12/25 05:27:49;;;;;;;9.60;4.35;;;9.00;94.70;;;;;;5136114;28;20052;-75
2022/12/25 05:30:15;;;;;;;7.68;3.20;;;9.00;94.80;;;;;;5135151;28;20027;-75
2022/12/25 05:32:40;;;;;;;7.03;3.22;;;9.00;94.70;;;;;;5135912;28;20031;-75
2022/12/25 05:35:07;;;;;;;10.65;3.72;;;8.90;94.80;;;;;;5135052;28;20073;-75
2022/12/25 05:37:34;;;;;;;6.18;3.15;;;8.90;94.90;;;;;;5135019;28;20023;-75
2022/12/25 05:40:00;;;;;;;7.63;3.58;;;8.90;95.00;;;;;;5135894;28;20023;-75
2022/12/25 05:42:25;;;;;;;8.07;3.65;;;8.90;95.10;;;;;;5134796;28;20019;-75
2022/12/25 05:44:51;;;;;;;7.30;3.88;;;9.00;95.10;;;;;;5134888;28;20032;-75
2022/12/25 05:47:16;;;;;;;9.10;3.30;;;9.00;94.90;;;;;;5135695;28;20024;-75
2022/12/25 05:49:42;;;;;;;9.75;3.28;;;9.00;94.90;;;;;;5135651;28;20069;-75
2022/12/25 05:52:08;;;;;;;6.97;3.50;;;9.00;94.90;;;;;;5134585;28;20028;-76
2022/12/25 05:54:34;;;;;;;7.68;3.83;;;9.00;94.90;;;;;;5135612;28;20379;-75
2022/12/25 05:56:59;;;;;;;7.05;3.40;;;9.00;95.00;;;;;;5134502;28;20498;-76
2022/12/25 05:59:29;;;;;;;8.13;3.20;;;9.10;95.00;;;;;;5135463;28;20020;-75
2022/12/25 06:01:55;;;;;;;9.32;3.72;;;9.10;95.00;;;;;;5134483;28;20049;-75
2022/12/25 06:04:20;;;;;;;9.02;3.10;;;9.10;95.10;;;;;;5135388;28;20032;-75
2022/12/25 06:06:46;;;;;;;8.25;3.72;;;9.20;95.00;;;;;;5134406;28;20035;-75
2022/12/25 06:09:12;;;;;;;8.43;3.65;;;9.20;95.00;;;;;;5135211;28;20032;-75
2022/12/25 06:11:38;;;;;;;12.23;4.55;;;9.20;95.00;;;;;;5134127;28;20031;-75
2022/12/25 06:14:04;;;;;;;10.38;4.10;;;9.30;95.00;;;;;;5134265;28;20024;-75
2022/12/25 06:16:30;;;;;;;7.90;3.65;;;9.30;95.00;;;;;;5117209;28;20043;-76
2022/12/25 06:18:56;;;;;;;10.35;3.58;;;9.30;95.00;;;;;;5133946;28;20054;-75
2022/12/25 06:21:21;;;;;;;9.60;3.85;;;9.30;95.00;;;;;;5117008;28;20031;-75
2022/12/25 06:23:47;;;;;;;16.70;5.53;;;9.40;94.90;;;;;;5134961;28;20073;-75
2022/12/25 06:26:17;;;;;;;18.65;7.75;;;9.30;94.90;;;;;;5134994;27;20057;-76
2022/12/25 06:28:44;;;;;;;10.73;4.30;;;9.30;94.90;;;;;;5134884;28;20024;-75
2022/12/25 06:31:16;;;;;;;8.93;4.13;;;9.20;95.00;;;;;;5134853;28;20022;-75
2022/12/25 06:33:42;;;;;;;10.47;4.33;;;9.30;95.00;;;;;;5134821;28;20394;-75
2022/12/25 06:36:17;;;;;;;13.95;5.25;;;9.30;95.00;;;;;;5133363;28;20091;-75
2022/12/25 06:38:42;;;;;;;9.07;4.50;;;9.30;95.10;;;;;;5134280;28;20071;-75
2022/12/25 06:41:16;;;;;;;10.05;4.43;;;9.30;95.10;;;;;;5133749;28;20032;-75
2022/12/25 06:43:42;;;;;;;11.48;4.32;;;9.30;95.10;;;;;;5133624;28;20019;-75
2022/12/25 06:46:10;;;;;;;10.85;4.05;;;9.40;95.20;;;;;;5133663;28;20045;-76
2022/12/25 06:48:38;;;;;;;9.82;4.07;;;9.40;95.10;;;;;;5134568;28;20031;-75
2022/12/25 06:51:04;;;;;;;9.48;4.30;;;9.40;95.00;;;;;;5116455;28;20020;-75
2022/12/25 06:53:30;;;;;;;8.98;4.18;;;9.40;95.00;;;;;;5133414;28;20036;-75
2022/12/25 06:56:07;;;;;;;11.07;4.38;;;9.50;95.10;;;;;;5116517;28;20368;-75
2022/12/25 06:58:33;;;;;;;10.10;4.07;;;9.50;95.10;;;;;;5134430;28;20020;-75
2022/12/25 07:00:58;;;;;;;7.28;3.78;;;9.50;95.10;;;;;;5116253;28;20026;-75
2022/12/25 07:03:27;;;;;;;9.52;3.95;;;9.50;95.00;;;;;;5133278;28;20015;-75
2022/12/25 07:05:52;;;;;;;7.15;4.10;;;9.50;95.00;;;;;;5133289;28;20118;-75
2022/12/25 07:08:18;;;;;;;11.38;4.18;;;9.50;95.00;;;;;;5116202;28;20027;-75
2022/12/25 07:10:44;;;;;;;11.40;4.38;;;9.50;94.90;;;;;;5099354;28;20414;-75
2022/12/25 07:13:09;;;;;;;11.48;4.55;;;9.50;94.90;;;;;;5134057;28;20032;-74
2022/12/25 07:15:35;;;;;;;13.82;4.55;;;9.60;94.90;;;;;;5133257;28;20028;-75
2022/12/25 07:18:00;;;;;;;8.35;4.43;;;9.50;94.90;;;;;;5133913;28;20055;-75
2022/12/25 07:20:26;;;;;;;13.73;4.38;;;9.50;94.90;;;;;;5133027;28;20034;-75
2022/12/25 07:22:52;;;;;;;12.68;4.82;;;9.60;94.90;;;;;;5134010;28;20087;-75
2022/12/25 07:25:17;;;;;;;9.07;4.00;;;9.60;94.90;;;;;;5116032;28;20028;-75
2022/12/25 07:27:43;;;;;;;11.00;4.35;;;9.60;94.90;;;;;;5133020;28;20055;-75
2022/12/25 07:30:09;;;;;;;8.73;3.85;;;9.60;94.90;;;;;;5116024;28;20048;-75
2022/12/25 07:32:35;;;;;;;9.75;3.63;;;9.70;94.90;;;;;;5116011;28;20070;-75
2022/12/25 07:35:00;;;;;;;10.93;4.20;;;9.70;94.80;;;;;;5133048;28;20028;-75
2022/12/25 07:37:26;;;;;;;18.05;7.93;;;9.70;94.90;;;;;;5115960;28;20033;-75
2022/12/25 07:39:51;;;;;;;17.40;6.28;;;9.70;94.80;;;;;;5132998;28;20031;-75
2022/12/25 07:42:17;;;;;;;13.65;5.55;;;9.70;94.80;;;;;;5099013;28;20035;-75
2022/12/25 07:44:43;;;;;;;11.88;5.40;;;9.70;94.80;;;;;;5115779;28;20023;-75
2022/12/25 07:47:08;;;;;;;12.57;5.10;;;9.70;94.80;;;;;;5098917;28;20076;-76
2022/12/25 07:49:35;;;;;;;9.35;3.55;;;9.70;94.80;;;;;;5136274;28;20084;-76
2022/12/25 07:52:00;;;;;;;9.35;3.85;;;9.80;94.80;;;;;;5136855;28;20031;-76
2022/12/25 07:54:26;;;;;;;7.07;3.15;;;9.80;94.80;;;;;;5119938;28;20053;-76
2022/12/25 07:56:52;;;;;;;9.63;3.70;;;9.80;94.80;;;;;;5136837;28;20168;-76
2022/12/25 07:59:18;;;;;;;10.02;4.10;;;9.80;94.80;;;;;;5137841;28;20066;-76
2022/12/25 08:01:44;;;;;;;13.02;3.53;;;9.90;94.70;;;;;;5136867;28;20042;-75
2022/12/25 08:04:10;;;;;;;7.35;3.30;;;9.80;94.70;;;;;;5137726;28;20019;-76
2022/12/25 08:06:36;;;;;;;6.35;3.42;;;9.80;94.80;;;;;;5137690;28;20016;-76
2022/12/25 08:09:09;;;;;;;11.82;4.45;;;9.80;94.80;;;;;;5136694;28;20035;-76
2022/12/25 08:11:35;;;;;;;;;;;9.80;94.80;;;;;;5138137;28;20020;-76
2022/12/25 08:14:01;;;;;;;4.95;2.90;;;9.90;94.80;;;;;;5136524;28;19935;-76
2022/12/25 08:16:26;;;;;;;10.13;3.55;;;9.80;94.80;;;;;;5136521;28;20028;-75
2022/12/25 08:18:52;;;;;;;7.75;3.88;;;9.90;94.80;;;;;;5119236;28;20061;-76
2022/12/25 08:21:18;;;;;;;6.93;3.25;;;9.80;94.80;;;;;;5136440;28;20031;-76
2022/12/25 08:23:45;;;;;;;6.15;3.55;;;9.90;94.90;;;;;;5136491;28;20028;-75
2022/12/25 08:26:14;;;;;;;8.13;3.38;;;9.90;94.90;;;;;;5137333;28;20020;-75
2022/12/25 08:28:40;;;;;;;9.95;3.40;;;9.90;94.90;;;;;;5136290;28;20019;-74
2022/12/25 08:31:18;;;;;;;8.38;3.63;;;9.90;95.20;;;;;;5136276;28;20034;-75
2022/12/25 08:33:44;;;;;;;7.10;3.20;;;9.90;94.80;;;;;;5137164;28;20023;-74
2022/12/25 08:36:11;;;;;;;5.30;3.25;;;9.90;94.80;;;;;;5119131;28;20041;-74
2022/12/25 08:38:36;;;;;;;9.23;3.25;;;9.90;94.80;;;;;;5137132;28;20019;-75
2022/12/25 08:41:02;;;;;;;9.30;2.85;;;9.90;94.80;;;;;;5137127;28;20030;-75
2022/12/25 08:43:28;;;;;;;8.15;3.08;;;9.90;94.80;;;;;;5137041;28;20020;-75
2022/12/25 08:45:54;;;;;;;8.95;2.75;;;9.90;94.80;;;;;;5136945;28;20557;-74
2022/12/25 08:48:20;;;;;;;13.02;3.63;;;9.90;94.90;;;;;;5136903;28;20053;-74
2022/12/25 08:50:47;;;;;;;6.93;3.03;;;9.90;94.90;;;;;;5135810;28;20095;-75
2022/12/25 08:53:15;;;;;;;7.68;2.88;;;9.90;94.90;;;;;;5135761;28;20031;-76
2022/12/25 08:55:41;;;;;;;7.45;2.97;;;9.90;94.90;;;;;;5136735;28;20028;-75
2022/12/25 08:58:06;;;;;;;7.05;3.08;;;9.90;94.80;;;;;;5135817;28;20023;-75
2022/12/25 09:00:32;;;;;;;5.18;2.80;;;9.90;94.80;;;;;;5117653;28;20039;-75
2022/12/25 09:02:58;;;;;;;6.72;2.88;;;9.90;94.90;;;;;;5136567;28;20032;-75
2022/12/25 09:05:23;;;;;;;6.95;3.40;;;9.90;94.90;;;;;;5118626;28;20030;-76
2022/12/25 09:07:49;;;;;;;8.73;3.30;;;9.90;95.00;;;;;;5135340;28;20059;-75
2022/12/25 09:10:15;;;;;;;7.82;3.22;;;9.90;95.30;;;;;;5118422;28;20038;-76
2022/12/25 09:12:40;;;;;;;8.68;3.28;;;10.00;95.00;;;;;;5118338;28;20027;-76
2022/12/25 09:15:06;;;;;;;9.20;3.25;;;10.00;94.90;;;;;;5135626;28;20478;-76
2022/12/25 09:17:32;;;;;;;6.72;2.90;;;10.00;94.90;;;;;;5118256;28;20042;-76
2022/12/25 09:19:59;;;;;;;7.07;3.00;;;10.00;95.00;;;;;;5101453;28;20035;-76
2022/12/25 09:22:24;;;;;;;7.65;2.70;;;9.90;95.00;;;;;;5135248;28;20020;-76
2022/12/25 09:24:50;;;;;;;9.15;2.78;;;10.00;94.90;;;;;;5135162;28;20032;-76
2022/12/25 09:27:16;;;;;;;9.63;3.13;;;10.00;94.90;;;;;;5136134;28;20038;-76
2022/12/25 09:29:41;;;;;;;8.73;2.40;;;10.00;94.90;;;;;;5135258;28;20035;-75
2022/12/25 09:32:07;;;;;;;10.43;3.63;;;10.00;95.00;;;;;;5134937;28;20059;-75
2022/12/25 09:34:34;;;;;;;6.72;2.85;;;10.00;95.10;;;;;;5136019;28;20024;-77
2022/12/25 09:36:59;;;;;;;15.95;5.25;;;10.00;95.10;;;;;;5135981;28;20037;-76
2022/12/25 09:39:25;;;;;;;8.93;3.55;;;10.00;95.20;;;;;;5134932;28;20024;-76
2022/12/25 09:42:00;;;;;;;7.97;2.75;;;10.00;95.20;;;;;;5134830;28;20036;-76
2022/12/25 09:44:44;;;;;;;7.30;2.55;;;10.00;95.20;;;;;;5134815;28;20145;-76
2022/12/25 09:47:19;;;;;;;7.95;2.90;;;10.00;95.20;;;;;;5135673;28;20080;-76
2022/12/25 09:50:05;;;;;;;6.38;2.80;;;10.10;95.20;;;;;;5135692;28;20039;-76
2022/12/25 09:52:40;;;;;;;9.45;2.85;;;10.00;95.20;;;;;;5134718;28;20493;-76
2022/12/25 09:55:17;;;;;;;9.63;3.20;;;10.10;95.20;;;;;;5134539;28;20035;-76
2022/12/25 09:57:44;;;;;;;6.57;2.55;;;10.10;95.20;;;;;;5135605;28;20015;-76
2022/12/25 10:00:15;;;;;;;4.95;2.40;;;10.10;95.20;;;;;;5135271;28;20031;-76
2022/12/25 10:03:05;;;;;;;10.52;3.40;;;10.10;95.20;;;;;;5135445;28;20031;-76
2022/12/25 10:06:01;;;;;;;6.18;3.10;;;10.10;95.10;;;;;;5135428;28;20038;-76
2022/12/25 10:08:51;;;;;;;9.07;2.80;;;10.10;95.20;;;;;;5134302;28;20027;-76
2022/12/25 10:11:35;;;;;;;4.95;2.75;;;10.10;95.10;;;;;;5134111;28;20035;-76
2022/12/25 10:14:28;;;;;;;7.97;3.15;;;10.10;95.20;;;;;;5134280;28;20123;-76
2022/12/25 10:17:23;;;;;;;5.38;2.67;;;10.10;95.20;;;;;;5135204;28;20039;-76
2022/12/25 10:20:22;;;;;;;5.55;3.10;;;10.00;95.30;;;;;;5134234;28;20048;-76
2022/12/25 10:22:57;;;;;;;4.78;2.50;;;10.00;95.40;;;;;;5135029;28;20111;-76
2022/12/25 10:25:24;;;;;;;7.28;2.88;;;10.10;95.40;;;;;;5134096;28;20023;-76
2022/12/25 10:27:54;;;;;;;5.60;2.75;;;10.00;95.40;;;;;;5134988;28;20048;-76
2022/12/25 10:30:25;;;;;;;7.65;3.38;;;10.10;95.40;;;;;;5135183;28;20042;-76
2022/12/25 10:32:53;;;;;;;11.40;3.50;;;10.10;95.40;;;;;;5134766;28;20027;-76
2022/12/25 10:35:24;;;;;;;7.47;3.55;;;10.10;95.40;;;;;;5133768;28;20081;-76
2022/12/25 10:38:04;;;;;;;7.97;3.17;;;10.10;95.40;;;;;;5133786;28;20120;-76
2022/12/25 10:41:04;;;;;;;6.53;2.67;;;10.10;95.40;;;;;;5134744;28;20024;-76
2022/12/25 10:43:38;;;;;;;7.10;3.25;;;10.10;95.50;;;;;;5133732;28;20020;-76
2022/12/25 10:46:13;;;;;;;7.50;2.70;;;10.10;95.60;;;;;;5134755;28;20030;-76
2022/12/25 10:48:59;;;;;;;9.50;3.15;;;10.10;95.70;;;;;;5134640;28;20031;-76
2022/12/25 10:51:31;;;;;;;4.53;2.70;;;10.00;95.80;;;;;;5133545;28;20024;-76
2022/12/25 10:53:57;;;;;;;7.47;3.07;;;10.10;95.80;;;;;;5133450;28;20027;-76
2022/12/25 10:56:23;;;;;;;6.68;3.13;;;10.10;95.90;;;;;;5134438;28;20285;-76
2022/12/25 10:58:48;;;;;;;7.57;3.22;;;10.10;95.90;;;;;;5133456;28;20039;-76
2022/12/25 11:01:14;;;;;;;8.95;3.40;;;10.10;96.00;;;;;;5116359;28;20028;-76
2022/12/25 11:03:44;;;;;;;8.32;3.30;;;10.10;95.90;;;;;;5134337;28;20028;-76
2022/12/25 11:06:22;;;;;;;7.15;3.00;;;10.10;95.90;;;;;;5134356;28;20028;-76
2022/12/25 11:08:55;;;;;;;5.80;2.88;;;10.20;95.80;;;;;;5134168;28;20028;-76
2022/12/25 11:11:21;;;;;;;10.02;3.08;;;10.10;95.80;;;;;;5133407;28;20039;-76
2022/12/25 11:13:53;;;;;;;5.93;3.00;;;10.10;95.80;;;;;;5134146;28;20031;-76
2022/12/25 11:16:29;;;;;;;7.38;3.05;;;10.20;95.80;;;;;;5133206;28;20023;-76
2022/12/25 11:18:56;;;;;;;6.10;2.78;;;10.20;95.80;;;;;;5132914;28;20043;-76
2022/12/25 11:21:25;;;;;;;9.00;3.10;;;10.20;95.80;;;;;;5134095;28;20032;-76
2022/12/25 11:24:06;;;;;;;7.53;2.90;;;10.20;95.80;;;;;;5133487;28;20024;-76
2022/12/25 11:26:45;;;;;;;4.55;2.70;;;10.20;95.80;;;;;;5134045;28;20028;-76
2022/12/25 11:29:20;;;;;;;7.38;3.17;;;10.20;95.80;;;;;;5134068;28;20028;-76
2022/12/25 11:31:46;;;;;;;7.80;4.10;;;10.20;95.80;;;;;;5132941;28;20027;-76
2022/12/25 11:34:41;;;;;;;12.50;5.18;;;10.20;95.80;;;;;;5116023;28;20031;-76
2022/12/25 11:37:15;;;;;;;10.57;4.60;;;10.20;95.90;;;;;;5132996;28;20030;-76
2022/12/25 11:39:41;;;;;;;8.70;4.10;;;10.20;95.90;;;;;;5132917;28;20019;-76
2022/12/25 11:42:09;;;;;;;5.68;3.28;;;10.20;95.90;;;;;;5132961;28;20087;-76
2022/12/25 11:44:46;;;;;;;9.73;3.80;;;10.20;96.00;;;;;;5133820;28;20107;-76
2022/12/25 11:47:53;;;;;;;8.45;4.15;;;10.20;96.10;;;;;;5133884;28;20053;-76
2022/12/25 11:50:25;;;;;;;7.30;3.40;;;10.20;96.20;;;;;;5133290;28;20039;-76
2022/12/25 11:52:52;;;;;;;7.40;2.90;;;10.20;96.30;;;;;;5133772;28;20028;-76
2022/12/25 11:55:30;;;;;;;8.63;2.95;;;10.20;96.30;;;;;;5115848;28;20024;-76
2022/12/25 11:57:59;;;;;;;6.20;3.10;;;10.20;96.40;;;;;;5133774;28;20075;-76
2022/12/25 12:00:26;;;;;;;6.93;2.78;;;10.20;96.50;;;;;;5132700;28;20517;-76
2022/12/25 12:03:21;;;;;;;5.57;2.92;;;10.20;96.50;;;;;;5133687;28;20035;-76
2022/12/25 12:06:01;;;;;;;8.05;3.30;;;10.20;96.50;;;;;;5116060;28;20038;-76
2022/12/25 12:08:29;;;;;;;8.85;3.38;;;10.20;96.50;;;;;;5132574;28;20024;-76
2022/12/25 12:11:17;;;;;;;9.32;3.50;;;10.20;96.50;;;;;;5115817;28;20054;-76
2022/12/25 12:13:55;;;;;;;7.43;3.30;;;10.20;96.60;;;;;;5132567;28;20020;-76
2022/12/25 12:16:21;;;;;;;7.65;3.42;;;10.10;96.70;;;;;;5132573;28;20019;-76
2022/12/25 12:18:47;;;;;;;9.77;3.38;;;10.10;96.80;;;;;;5132341;28;20067;-76
2022/12/25 12:21:21;;;;;;;7.78;3.85;;;10.10;96.80;;;;;;5115568;28;20386;-76
2022/12/25 12:23:50;;;;;;;9.20;3.95;;;10.10;97.00;;;;;;5133490;28;20047;-76
2022/12/25 12:26:21;;;;;;;5.70;3.00;;;10.10;97.20;;;;;;5133496;28;20024;-76
2022/12/25 12:28:49;;;;;;;5.43;3.17;;;10.10;97.30;;;;;;5132551;28;20031;-76
2022/12/25 12:31:16;;;;;;;7.78;4.03;;;10.10;97.40;;;;;;5133571;28;20043;-76
2022/12/25 12:33:56;;;;;;;10.57;5.95;;;10.10;97.50;;;;;;5132313;28;20023;-76
2022/12/25 12:36:25;;;;;;;9.90;5.32;;;10.10;97.50;;;;;;5137197;28;20028;-76
2022/12/25 12:38:53;;;;;;;8.35;4.78;;;10.10;97.50;;;;;;5136134;28;20020;-76
2022/12/25 12:41:21;;;;;;;11.07;4.80;;;10.10;97.50;;;;;;5137057;28;20047;-76
2022/12/25 12:43:58;;;;;;;9.45;5.30;;;10.20;97.50;;;;;;5119020;28;20027;-76
2022/12/25 12:46:31;;;;;;;10.18;5.13;;;10.20;97.50;;;;;;5135989;28;20023;-76
2022/12/25 12:49:19;;;;;;;10.30;5.38;;;10.20;97.40;;;;;;5136962;28;20111;-76
2022/12/25 12:51:44;;;;;;;7.32;4.18;;;10.20;97.30;;;;;;5135695;28;20054;-76
2022/12/25 12:54:24;;;;;;;9.23;4.45;;;10.20;97.30;;;;;;5136911;28;20023;-76
2022/12/25 12:56:59;;;;;;;11.20;4.72;;;10.20;97.30;;;;;;5118736;28;20028;-76
2022/12/25 12:59:31;;;;;;;11.27;5.22;;;10.30;97.40;;;;;;5136711;28;20028;-76
2022/12/25 13:02:09;;;;;;;11.57;5.95;;;10.30;97.30;;;;;;5135804;28;20073;-76
2022/12/25 13:04:57;;;;;;;11.50;5.70;;;10.30;97.20;;;;;;5135624;28;20034;-76
2022/12/25 13:08:21;;;;;;;9.80;5.15;;;10.30;97.20;;;;;;5136697;28;20449;-76
2022/12/25 13:11:01;;;;;;;8.20;4.55;;;10.30;97.20;;;;;;5089187;28;20031;-76
2022/12/25 13:13:35;;;;;;;11.68;5.35;;;10.30;97.30;;;;;;5135422;28;20032;-76
2022/12/25 13:16:02;;;;;;;12.98;5.32;;;10.30;97.30;;;;;;5135496;28;20083;-76
2022/12/25 13:18:29;;;;;;;10.07;5.07;;;10.30;97.30;;;;;;5135190;28;20051;-76
2022/12/25 13:20:58;;;;;;;8.95;5.03;;;10.30;97.60;;;;;;5136302;28;20040;-76
2022/12/25 13:23:32;;;;;;;10.18;4.80;;;10.40;97.30;;;;;;5136258;28;20051;-76
2022/12/25 13:26:10;;;;;;;12.68;5.53;;;10.40;97.30;;;;;;5135247;28;20478;-76
2022/12/25 13:28:37;;;;;;;8.98;5.03;;;10.40;97.20;;;;;;5136146;28;20030;-76
2022/12/25 13:31:23;;;;;;;10.93;5.60;;;10.40;97.20;;;;;;5117950;28;20030;-76
2022/12/25 13:34:03;;;;;;;11.88;5.72;;;10.40;97.30;;;;;;5135925;28;20057;-76
2022/12/25 13:36:34;;;;;;;13.27;5.55;;;10.40;97.30;;;;;;5135045;28;20016;-76
2022/12/25 13:39:00;;;;;;;11.85;5.13;;;10.40;97.40;;;;;;5134995;28;20020;-76
2022/12/25 13:44:27;;;;;;;8.52;5.13;;;10.40;97.50;;;;;;5136080;28;20031;-76
2022/12/25 13:46:53;;;;;;;8.82;4.53;;;10.40;97.50;;;;;;5134239;28;20034;-76
2022/12/25 13:49:21;;;;;;;9.50;4.90;;;10.40;97.60;;;;;;5135786;28;20032;-76
2022/12/25 13:51:47;;;;;;;12.40;5.75;;;10.40;97.60;;;;;;5135634;28;20024;-76
2022/12/25 13:54:15;;;;;;;8.48;4.53;;;10.40;97.50;;;;;;5135633;28;20019;-76
2022/12/25 13:56:52;;;;;;;12.25;5.43;;;10.40;97.70;;;;;;5135579;28;20390;-76
2022/12/25 13:59:22;;;;;;;12.00;5.63;;;10.40;97.70;;;;;;5135551;28;20023;-76
2022/12/25 14:01:49;;;;;;;12.98;5.10;;;10.40;97.70;;;;;;5134447;28;20016;-76
2022/12/25 14:04:20;;;;;;;11.40;4.82;;;10.40;97.60;;;;;;5134452;28;20050;-76
2022/12/25 14:06:47;;;;;;;11.63;5.43;;;10.40;97.70;;;;;;5135464;28;20072;-76
2022/12/25 14:09:13;;;;;;;13.15;5.53;;;10.40;97.70;;;;;;5135290;28;20083;-76
2022/12/25 14:11:44;;;;;;;13.00;5.47;;;10.40;97.80;;;;;;5117280;28;20087;-76
2022/12/25 14:14:20;;;;;;;10.45;6.03;;;10.40;97.80;;;;;;5134317;28;20023;-76
2022/12/25 14:16:48;;;;;;;12.77;6.10;;;10.50;97.80;;;;;;5135365;28;20016;-76
2022/12/25 14:19:27;;;;;;;11.32;5.88;;;10.40;97.70;;;;;;5135025;28;20044;-76
2022/12/25 14:22:09;;;;;;;11.90;6.10;;;10.40;97.70;;;;;;5135132;28;20026;-76
2022/12/25 14:24:35;;;;;;;11.63;6.57;;;10.50;97.70;;;;;;5135109;28;20020;-76
2022/12/25 14:27:12;;;;;;;11.93;6.55;;;10.50;97.80;;;;;;5117100;28;20046;-76
2022/12/25 14:29:43;;;;;;;13.93;6.95;;;10.40;97.80;;;;;;5135001;27;20033;-76
2022/12/25 14:32:21;;;;;;;16.60;7.05;;;10.50;97.80;;;;;;5133839;28;20167;-76
2022/12/25 14:34:50;;;;;;;12.60;6.55;;;10.50;97.80;;;;;;5133866;28;20026;-76
2022/12/25 14:37:19;;;;;;;13.85;7.20;;;10.50;97.70;;;;;;5134829;28;20042;-76
2022/12/25 14:39:54;;;;;;;13.50;6.93;;;10.50;97.80;;;;;;5134744;28;20047;-76
2022/12/25 14:42:23;;;;;;;12.88;6.05;;;10.50;97.80;;;;;;5133757;28;20049;-76
2022/12/25 14:45:03;;;;;;;13.50;6.72;;;10.40;97.80;;;;;;5133649;28;20110;-76
2022/12/25 14:47:30;;;;;;;12.23;6.50;;;10.40;97.90;;;;;;5134847;28;20047;-76
2022/12/25 14:49:57;;;;;;;16.23;7.13;;;10.40;97.90;;;;;;5134561;28;20026;-76